Time;durP1;ratioP1;P1;durP2;ratioP2;P2;SDS_P1;SDS_P2;PMS_P1;PMS_P2;Temp;Humidity;BMP_temperature;BMP_pressure;BME280_temperature;BME280_humidity;BME280_pressure;Samples;Min_cycle;Max_cycle;Signal;HPM_P1;HPM_P2
2022/06/12 00:00:17;;;;;;;4.47;1.20;;;;;;;16.78;86.18;101939.06;6398546;27;20081;-78
2022/06/12 00:03:21;;;;;;;2.35;1.08;;;;;;;16.71;84.36;101940.34;6400530;27;20418;-78
2022/06/12 00:06:25;;;;;;;2.55;1.25;;;;;;;16.60;84.10;101938.34;6399998;27;20046;-77
2022/06/12 00:09:26;;;;;;;5.30;1.15;;;;;;;16.58;84.42;101950.84;6400547;27;20050;-77
2022/06/12 00:12:27;;;;;;;6.05;1.10;;;;;;;16.60;84.96;101937.47;6399995;27;20517;-77
2022/06/12 00:15:30;;;;;;;2.45;0.90;;;;;;;16.58;83.87;101955.28;6399699;27;20497;-77
2022/06/12 00:18:32;;;;;;;6.53;0.88;;;;;;;16.46;83.66;101959.53;6400186;27;20047;-77
2022/06/12 00:21:36;;;;;;;3.45;0.93;;;;;;;16.43;84.33;101938.47;6399913;27;20507;-77
2022/06/12 00:24:38;;;;;;;3.95;1.33;;;;;;;16.53;84.64;101944.09;6384952;27;20039;-76
2022/06/12 00:27:40;;;;;;;5.75;1.25;;;;;;;16.48;83.55;101941.69;6375695;27;20051;-77
2022/06/12 00:30:42;;;;;;;1.75;0.93;;;;;;;16.38;84.25;101949.34;6374597;27;20054;-78
2022/06/12 00:33:44;;;;;;;2.72;0.85;;;;;;;16.40;85.66;101938.66;6373876;27;20140;-77
2022/06/12 00:36:47;;;;;;;6.55;1.40;;;;;;;16.42;84.78;101937.63;6373672;27;20039;-77
2022/06/12 00:39:50;;;;;;;2.22;0.85;;;;;;;16.38;85.56;101938.75;6373787;27;20058;-77
2022/06/12 00:42:54;;;;;;;6.35;0.90;;;;;;;16.30;85.72;101937.47;6374054;27;20452;-77
2022/06/12 00:45:59;;;;;;;2.00;1.50;;;;;;;16.21;86.36;101942.41;6373396;27;20043;-77
2022/06/12 00:49:00;;;;;;;2.25;1.00;;;;;;;16.19;87.25;101938.97;6373620;27;20135;-77
2022/06/12 00:52:09;;;;;;;2.75;1.00;;;;;;;16.14;87.70;101941.03;6373275;27;20050;-76
2022/06/12 00:55:18;;;;;;;3.45;1.40;;;;;;;16.16;88.37;101936.47;6373086;27;20054;-77
2022/06/12 00:58:23;;;;;;;5.78;1.15;;;;;;;16.18;88.58;101934.59;6374559;27;20054;-77
2022/06/12 01:01:29;;;;;;;3.03;1.05;;;;;;;16.18;88.53;101937.25;6372953;27;20050;-77
2022/06/12 01:07:56;;;;;;;13.73;1.48;;;;;;;16.03;88.92;101948.72;6373444;27;20043;-77
2022/06/12 01:11:01;;;;;;;10.30;1.40;;;;;;;15.95;89.63;101943.88;6372888;27;20050;-77
2022/06/12 01:14:06;;;;;;;6.68;1.20;;;;;;;15.95;89.77;101935.06;6372678;27;20050;-76
2022/06/12 01:17:07;;;;;;;3.58;0.93;;;;;;;15.85;89.87;101942.69;6372964;27;20043;-77
2022/06/12 01:20:13;;;;;;;7.55;1.17;;;;;;;15.72;91.16;101944.31;6372406;27;20051;-77
2022/06/12 01:23:44;;;;;;;8.23;1.40;;;;;;;15.66;91.53;101942.00;6372986;27;20058;-76
2022/06/12 01:27:04;;;;;;;4.82;1.42;;;;;;;15.62;91.98;101935.97;6373373;27;20043;-77
2022/06/12 01:30:12;;;;;;;5.15;1.20;;;;;;;15.46;92.61;101935.13;6347113;28;20050;-77
2022/06/12 01:33:21;;;;;;;3.00;1.20;;;;;;;15.47;93.54;101918.28;6347335;28;20055;-78
2022/06/12 01:36:30;;;;;;;5.68;1.40;;;;;;;15.50;93.02;101923.44;6346775;28;20071;-76
2022/06/12 01:39:37;;;;;;;;;;;;;;;15.47;92.73;101927.09;6347515;28;20054;-77
2022/06/12 01:42:46;;;;;;;3.17;0.88;;;;;;;15.34;93.38;101922.53;6346590;28;19976;-77
2022/06/12 01:45:53;;;;;;;;;;;;;;;15.39;93.50;101909.91;6346884;28;20048;-76
2022/06/12 01:49:02;;;;;;;4.55;0.98;;;;;;;15.41;93.06;101905.38;6347007;28;20439;-77
2022/06/12 01:52:11;;;;;;;2.85;1.13;;;;;;;15.32;93.23;101909.41;6346685;28;20048;-77
2022/06/12 01:55:17;;;;;;;7.65;1.20;;;;;;;15.24;93.82;101914.25;6346720;28;20051;-77
2022/06/12 01:58:29;;;;;;;4.30;1.15;;;;;;;15.19;94.67;101911.84;6379083;27;20050;-77
2022/06/12 02:01:39;;;;;;;5.53;1.20;;;;;;;15.17;95.16;101908.44;6397530;27;20502;-77
2022/06/12 02:04:48;;;;;;;7.05;1.20;;;;;;;15.08;96.41;101911.59;6388944;27;20047;-77
2022/06/12 02:07:55;;;;;;;1.55;0.95;;;;;;;15.03;96.91;101918.03;6372300;28;20051;-77
2022/06/12 02:13:11;;;;;;;5.57;1.33;;;;;;;15.06;96.95;101910.78;6371766;28;20054;-77
2022/06/12 02:14:27;;;;;;;6.55;1.17;;;;;;;14.94;97.09;101917.63;6371127;28;20054;-76
2022/06/12 02:17:35;;;;;;;1.90;1.00;;;;;;;14.89;98.89;101914.31;6372294;28;20046;-77
2022/06/12 02:20:40;;;;;;;4.22;1.10;;;;;;;14.88;99.10;101915.28;6371562;28;20043;-76
2022/06/12 02:23:48;;;;;;;3.22;1.15;;;;;;;14.87;99.77;101913.56;6371503;28;20043;-78
2022/06/12 02:26:58;;;;;;;1.85;0.80;;;;;;;14.77;99.54;101911.50;6371829;27;20043;-78
2022/06/12 02:30:01;;;;;;;;;;;;;;;14.71;99.79;101912.66;6372108;28;20092;-76
2022/06/12 02:33:07;;;;;;;7.03;1.80;;;;;;;14.72;100.00;101909.09;6372021;28;19920;-77
2022/06/12 02:36:13;;;;;;;3.97;1.13;;;;;;;14.72;100.00;101906.44;6371275;27;20058;-76
2022/06/12 02:39:19;;;;;;;6.50;2.03;;;;;;;14.64;100.00;101906.81;6371848;28;20055;-77
2022/06/12 02:42:25;;;;;;;8.85;1.33;;;;;;;14.65;100.00;101900.59;6384940;27;20046;-77
2022/06/12 02:45:32;;;;;;;7.63;1.17;;;;;;;14.67;100.00;101897.84;6397271;27;20046;-77
2022/06/12 02:48:34;;;;;;;6.80;1.13;;;;;;;14.61;100.00;101901.69;6397784;27;20057;-77
2022/06/12 02:51:42;;;;;;;2.95;0.90;;;;;;;14.58;100.00;101895.69;6396982;27;20074;-77
2022/06/12 02:54:53;;;;;;;2.10;1.00;;;;;;;14.62;100.00;101897.25;6396947;27;20046;-76
2022/06/12 02:58:07;;;;;;;3.88;1.20;;;;;;;14.64;100.00;101898.91;6400312;27;20046;-77
2022/06/12 03:01:14;;;;;;;1.80;1.00;;;;;;;14.57;100.00;101900.13;6399954;27;20706;-77
2022/06/12 03:04:21;;;;;;;5.05;1.23;;;;;;;14.46;100.00;101897.16;6401255;27;20387;-77
2022/06/12 03:07:24;;;;;;;9.82;3.00;;;;;;;14.43;100.00;101894.66;6402479;27;20062;-77
2022/06/12 03:10:29;;;;;;;1.98;1.17;;;;;;;14.43;100.00;101892.88;6401564;27;20516;-77
2022/06/12 03:13:32;;;;;;;7.10;1.35;;;;;;;14.40;100.00;101900.13;6401612;27;20523;-78
2022/06/12 03:16:36;;;;;;;5.72;1.48;;;;;;;14.36;100.00;101895.94;6401475;27;20042;-76
2022/06/12 03:19:46;;;;;;;2.78;1.50;;;;;;;14.36;100.00;101898.56;6401645;27;20058;-77
2022/06/12 03:22:50;;;;;;;;;;;;;;;14.36;100.00;101909.16;6402130;27;20042;-77
2022/06/12 03:25:56;;;;;;;4.90;1.27;;;;;;;14.33;100.00;101906.66;6401255;27;19926;-77
2022/06/12 03:29:06;;;;;;;8.80;1.85;;;;;;;14.24;100.00;101897.38;6399823;27;20050;-78
2022/06/12 03:32:18;;;;;;;7.60;1.65;;;;;;;14.17;100.00;101911.84;6400889;27;20057;-76
2022/06/12 03:35:36;;;;;;;4.10;0.95;;;;;;;14.23;100.00;101905.41;6400988;27;20094;-77
2022/06/12 03:38:47;;;;;;;9.18;2.33;;;;;;;14.28;100.00;101906.88;6401034;27;20043;-76
2022/06/12 03:41:55;;;;;;;7.05;1.38;;;;;;;14.24;100.00;101912.41;6400815;27;20082;-77
2022/06/12 03:45:02;;;;;;;5.50;1.38;;;;;;;14.24;100.00;101909.75;6400751;27;20050;-77
2022/06/12 03:48:16;;;;;;;2.78;1.23;;;;;;;14.29;100.00;101915.66;6401144;27;20043;-77
2022/06/12 03:51:26;;;;;;;2.67;1.38;;;;;;;14.27;100.00;101912.25;6400442;27;20051;-77
2022/06/12 03:54:36;;;;;;;4.63;1.80;;;;;;;14.15;100.00;101913.72;6400594;27;20054;-76
2022/06/12 03:57:50;;;;;;;3.80;1.10;;;;;;;14.19;100.00;101925.84;6391062;27;20130;-76
2022/06/12 04:00:53;;;;;;;2.22;1.15;;;;;;;14.25;100.00;101916.75;6374387;27;20079;-76
2022/06/12 04:03:56;;;;;;;3.97;0.98;;;;;;;14.31;100.00;101924.41;6374643;27;20043;-77
2022/06/12 04:07:02;;;;;;;2.60;1.25;;;;;;;14.35;100.00;101918.00;6374712;27;20047;-76
2022/06/12 04:10:05;;;;;;;5.07;1.20;;;;;;;14.34;100.00;101921.59;6374433;27;20047;-77
2022/06/12 04:13:12;;;;;;;5.82;1.65;;;;;;;14.30;100.00;101920.03;6374761;27;20055;-76
2022/06/12 04:16:23;;;;;;;3.42;0.90;;;;;;;14.39;100.00;101908.97;6374277;27;20050;-77
2022/06/12 04:19:27;;;;;;;2.70;1.40;;;;;;;14.46;100.00;101918.31;6374415;27;20051;-77
2022/06/12 04:22:45;;;;;;;2.33;0.90;;;;;;;14.52;100.00;101922.47;6374142;27;20050;-76
2022/06/12 04:25:52;;;;;;;3.40;1.60;;;;;;;14.40;100.00;101916.84;6373878;27;20137;-77
2022/06/12 04:29:00;;;;;;;1.80;1.08;;;;;;;14.44;100.00;101922.81;6397719;27;20043;-76
2022/06/12 04:32:05;;;;;;;3.55;1.27;;;;;;;14.43;100.00;101921.97;6376601;27;20490;-77
2022/06/12 04:35:07;;;;;;;4.43;1.33;;;;;;;14.43;100.00;101918.47;6373940;27;20051;-76
2022/06/12 04:38:10;;;;;;;5.50;1.15;;;;;;;14.53;100.00;101922.38;6374125;27;20050;-77
2022/06/12 04:41:19;;;;;;;5.25;1.52;;;;;;;14.61;100.00;101909.63;6373399;27;20055;-77
2022/06/12 04:44:21;;;;;;;5.75;1.42;;;;;;;14.59;100.00;101908.84;6373768;27;20050;-77
2022/06/12 04:47:25;;;;;;;2.20;1.13;;;;;;;14.53;100.00;101897.72;6373590;27;20395;-76
2022/06/12 04:50:26;;;;;;;8.18;1.70;;;;;;;14.58;100.00;101909.81;6368849;27;20043;-75
2022/06/12 04:53:29;;;;;;;4.32;1.77;;;;;;;14.62;100.00;101905.19;6355592;27;20062;-76
2022/06/12 04:56:33;;;;;;;3.25;1.05;;;;;;;14.74;100.00;101914.28;6348586;27;20048;-77
2022/06/12 04:59:35;;;;;;;3.38;1.35;;;;;;;14.83;100.00;101898.78;6373414;27;20130;-76
2022/06/12 05:02:36;;;;;;;4.78;1.40;;;;;;;14.90;100.00;101907.28;6373065;27;20391;-76
2022/06/12 05:05:39;;;;;;;7.10;2.20;;;;;;;14.96;100.00;101909.59;6372708;27;20512;-77
2022/06/12 05:08:43;;;;;;;5.53;1.67;;;;;;;15.02;100.00;101905.75;6373232;27;20043;-77
2022/06/12 05:11:45;;;;;;;2.85;1.05;;;;;;;15.04;100.00;101898.59;6372696;27;20058;-76
2022/06/12 05:14:46;;;;;;;6.70;1.48;;;;;;;15.09;100.00;101894.75;6372666;27;20391;-76
2022/06/12 05:17:49;;;;;;;7.95;1.15;;;;;;;15.16;100.00;101893.47;6372939;27;20043;-76
2022/06/12 05:20:51;;;;;;;2.40;1.48;;;;;;;15.19;100.00;101889.81;6371958;27;20047;-76
2022/06/12 05:23:53;;;;;;;6.10;1.27;;;;;;;15.21;100.00;101887.91;6372333;27;20513;-76
2022/06/12 05:26:55;;;;;;;6.32;1.40;;;;;;;15.27;100.00;101890.25;6381532;27;20050;-76
2022/06/12 05:29:57;;;;;;;1.95;0.93;;;;;;;15.35;100.00;101893.34;6379580;27;20062;-76
2022/06/12 05:33:00;;;;;;;3.00;1.50;;;;;;;15.33;100.00;101902.28;6372629;27;20047;-76
2022/06/12 05:36:01;;;;;;;6.95;1.48;;;;;;;15.36;100.00;101897.69;6372264;27;20050;-76
2022/06/12 05:39:04;;;;;;;3.38;1.10;;;;;;;15.42;100.00;101900.00;6372484;27;20410;-76
2022/06/12 05:42:06;;;;;;;7.70;1.70;;;;;;;15.53;100.00;101904.69;6372200;27;20056;-76
2022/06/12 05:45:13;;;;;;;3.08;1.10;;;;;;;15.56;100.00;101895.72;6371855;27;20217;-76
2022/06/12 05:48:18;;;;;;;3.30;1.45;;;;;;;15.60;100.00;101897.28;6372594;27;20165;-76
2022/06/12 05:51:20;;;;;;;5.45;1.10;;;;;;;15.62;100.00;101892.72;6371906;27;20092;-75
2022/06/12 05:54:22;;;;;;;2.20;1.00;;;;;;;15.69;100.00;101894.97;6372107;27;20057;-76
2022/06/12 05:57:24;;;;;;;6.28;1.38;;;;;;;15.75;100.00;101896.44;6372156;27;20055;-76
2022/06/12 06:00:30;;;;;;;7.10;1.48;;;;;;;15.82;100.00;101892.50;6372827;27;20047;-76
2022/06/12 06:03:32;;;;;;;4.20;1.42;;;;;;;15.88;100.00;101897.44;6372360;28;20043;-76
2022/06/12 06:06:38;;;;;;;3.40;1.42;;;;;;;16.00;100.00;101897.69;6372150;28;20051;-76
2022/06/12 06:09:41;;;;;;;7.60;1.27;;;;;;;16.07;99.50;101901.69;6371854;28;20391;-76
2022/06/12 06:12:42;;;;;;;7.63;1.23;;;;;;;16.08;97.98;101903.38;6371884;28;20051;-76
2022/06/12 06:15:45;;;;;;;2.28;0.93;;;;;;;16.16;97.67;101909.09;6372243;28;20072;-76
2022/06/12 06:18:47;;;;;;;6.80;1.20;;;;;;;16.21;98.13;101913.22;6371900;28;20521;-76
2022/06/12 06:21:49;;;;;;;4.47;1.00;;;;;;;16.29;99.07;101911.91;6371822;28;20387;-76
2022/06/12 06:24:52;;;;;;;5.85;1.52;;;;;;;16.41;98.87;101904.06;6371427;28;20047;-76
2022/06/12 06:27:54;;;;;;;3.83;1.10;;;;;;;16.47;99.14;101902.84;6372103;28;20047;-75
2022/06/12 06:30:55;;;;;;;9.82;1.50;;;;;;;16.57;98.59;101911.13;6389545;27;20062;-76
2022/06/12 06:33:57;;;;;;;5.47;1.77;;;;;;;16.64;98.63;101910.66;6402329;27;20521;-76
2022/06/12 06:36:59;;;;;;;2.72;1.10;;;;;;;16.68;97.88;101906.03;6402425;27;20043;-76
2022/06/12 06:40:02;;;;;;;2.20;1.48;;;;;;;16.75;97.00;101902.06;6401934;27;20061;-76
2022/06/12 06:43:04;;;;;;;8.25;1.50;;;;;;;16.87;91.98;101908.44;6402238;27;20054;-77
2022/06/12 06:46:13;;;;;;;2.80;1.48;;;;;;;16.99;88.77;101905.91;6401660;27;20049;-77
2022/06/12 06:49:14;;;;;;;3.05;1.65;;;;;;;17.02;89.06;101909.28;6402418;27;20075;-76
2022/06/12 06:52:16;;;;;;;6.47;1.45;;;;;;;17.09;88.37;101916.81;6401707;27;20061;-76
2022/06/12 06:55:20;;;;;;;4.05;1.25;;;;;;;17.14;88.52;101909.41;6401799;27;20058;-76
2022/06/12 06:58:25;;;;;;;3.53;1.15;;;;;;;17.17;89.29;101908.38;6401650;27;20046;-76
2022/06/12 07:01:27;;;;;;;2.33;1.02;;;;;;;17.28;86.74;101907.69;6399778;27;20429;-76
2022/06/12 07:04:28;;;;;;;13.10;2.00;;;;;;;17.31;85.82;101905.69;6401543;27;20050;-76
2022/06/12 07:07:30;;;;;;;3.17;1.38;;;;;;;17.36;86.10;101902.75;6402160;27;20047;-76
2022/06/12 07:10:34;;;;;;;4.00;1.35;;;;;;;17.40;83.35;101902.44;6401324;27;20047;-76
2022/06/12 07:13:35;;;;;;;6.15;1.10;;;;;;;17.44;81.32;101900.41;6401899;27;20051;-77
2022/06/12 07:16:38;;;;;;;3.17;1.17;;;;;;;17.52;82.08;101900.78;6401238;27;20046;-76
2022/06/12 07:19:40;;;;;;;6.57;1.27;;;;;;;17.60;79.34;101897.66;6401418;27;20053;-78
2022/06/12 07:22:41;;;;;;;2.88;1.58;;;;;;;17.68;74.42;101904.19;6401454;27;20050;-77
2022/06/12 07:25:48;;;;;;;3.35;1.38;;;;;;;17.75;76.10;101896.69;6400904;27;20490;-75
2022/06/12 07:28:49;;;;;;;4.47;1.15;;;;;;;17.78;77.42;101891.16;6401430;27;20047;-74
2022/06/12 07:31:51;;;;;;;2.88;1.48;;;;;;;17.84;77.90;101900.53;6386834;27;20575;-74
2022/06/12 07:34:54;;;;;;;7.47;1.70;;;;;;;17.88;77.30;101897.59;6378048;27;20050;-74
2022/06/12 07:37:55;;;;;;;4.72;1.10;;;;;;;17.92;76.32;101895.59;6375193;27;20049;-75
2022/06/12 07:41:01;;;;;;;2.60;1.00;;;;;;;18.06;68.99;101892.00;6374734;27;20053;-75
2022/06/12 07:44:02;;;;;;;4.07;1.67;;;;;;;18.18;66.99;101893.84;6374215;27;20047;-75
2022/06/12 07:47:04;;;;;;;7.78;1.00;;;;;;;18.33;57.15;101890.16;6375207;27;20054;-75
2022/06/12 07:50:07;;;;;;;2.75;0.40;;;;;;;18.49;55.42;101890.81;6374389;27;20047;-76
2022/06/12 07:53:10;;;;;;;6.65;0.60;;;;;;;18.52;55.60;101905.72;6375071;27;20047;-76
2022/06/12 07:56:13;;;;;;;1.92;0.30;;;;;;;18.64;55.24;101894.25;6374549;27;20044;-77
2022/06/12 07:59:15;;;;;;;3.28;0.70;;;;;;;18.69;54.38;101899.28;6374582;27;20043;-76
2022/06/12 08:02:16;;;;;;;1.10;0.50;;;;;;;18.77;54.65;101891.63;6375692;27;20054;-76
2022/06/12 08:05:20;;;;;;;2.40;0.52;;;;;;;18.86;55.33;101892.78;6374129;27;20059;-76
2022/06/12 08:08:21;;;;;;;1.50;0.70;;;;;;;18.95;55.39;101898.31;6374641;27;20055;-76
2022/06/12 08:11:25;;;;;;;2.97;0.73;;;;;;;19.03;54.78;101895.13;6374166;27;20054;-77
2022/06/12 08:14:26;;;;;;;1.55;0.50;;;;;;;19.13;54.99;101890.00;6374294;27;20056;-76
2022/06/12 08:17:28;;;;;;;1.48;0.40;;;;;;;19.12;52.86;101901.59;6374257;27;20154;-76
2022/06/12 08:20:30;;;;;;;3.30;0.45;;;;;;;19.07;53.35;101899.25;6373983;27;20047;-77
2022/06/12 08:23:34;;;;;;;1.75;0.68;;;;;;;19.28;52.66;101904.88;6374398;27;20134;-76
2022/06/12 08:26:36;;;;;;;3.08;0.45;;;;;;;19.34;52.08;101896.44;6374257;27;20043;-77
2022/06/12 08:29:39;;;;;;;6.78;0.75;;;;;;;19.30;53.20;101892.28;6373702;27;20418;-77
2022/06/12 08:32:42;;;;;;;0.65;0.45;;;;;;;19.33;54.76;101891.22;6374149;27;20051;-76
2022/06/12 08:35:43;;;;;;;3.97;0.60;;;;;;;19.45;53.32;101887.69;6373608;27;20051;-76
2022/06/12 08:38:46;;;;;;;0.60;0.38;;;;;;;19.44;55.17;101884.16;6373730;27;20519;-77
2022/06/12 08:41:55;;;;;;;2.65;0.50;;;;;;;19.62;54.46;101891.78;6373618;27;20103;-76
2022/06/12 08:45:07;;;;;;;0.68;0.40;;;;;;;19.77;53.46;101890.69;6373553;27;20124;-77
2022/06/12 08:48:15;;;;;;;3.03;0.68;;;;;;;19.73;53.01;101897.22;6373838;27;20047;-78
2022/06/12 08:51:24;;;;;;;0.97;0.43;;;;;;;19.75;52.13;101885.44;6373715;27;20058;-77
2022/06/12 08:54:30;;;;;;;1.83;1.23;;;;;;;19.85;51.94;101882.97;6372616;27;20043;-77
2022/06/12 08:57:50;;;;;;;1.08;0.50;;;;;;;19.85;51.06;101869.63;6373261;27;20051;-76
2022/06/12 09:00:52;;;;;;;1.05;0.70;;;;;;;19.95;47.43;101881.31;6374196;27;20072;-76
2022/06/12 09:03:55;;;;;;;2.92;0.52;;;;;;;19.92;48.06;101872.69;6373421;27;20054;-77
2022/06/12 09:07:04;;;;;;;6.60;0.90;;;;;;;20.02;49.50;101868.34;6373167;27;20055;-77
2022/06/12 09:10:10;;;;;;;3.25;0.70;;;;;;;20.08;50.15;101869.72;6373316;27;20047;-77
2022/06/12 09:13:25;;;;;;;3.22;1.60;;;;;;;20.13;48.90;101862.22;6373289;27;20074;-77
2022/06/12 09:16:33;;;;;;;2.70;0.60;;;;;;;20.05;50.81;101860.13;6372910;27;20058;-76
2022/06/12 09:19:42;;;;;;;1.23;0.47;;;;;;;20.16;49.62;101841.44;6372687;27;20046;-76
2022/06/12 09:22:54;;;;;;;0.83;0.40;;;;;;;20.18;48.87;101839.53;6373128;27;20058;-75
2022/06/12 09:26:08;;;;;;;1.35;0.63;;;;;;;20.32;46.59;101848.31;6372683;27;20057;-76
2022/06/12 09:29:21;;;;;;;1.20;0.75;;;;;;;20.30;48.82;101842.22;6372865;27;20043;-77
2022/06/12 09:32:32;;;;;;;0.57;0.35;;;;;;;20.29;45.38;101849.38;6397754;27;20054;-77
2022/06/12 09:35:51;;;;;;;3.72;0.80;;;;;;;20.35;46.01;101842.72;6398463;27;20128;-76
2022/06/12 09:39:03;;;;;;;0.73;0.47;;;;;;;20.47;46.51;101834.63;6398291;27;20490;-75
2022/06/12 09:42:19;;;;;;;2.95;0.20;;;;;;;20.58;46.50;101841.00;6385668;27;20050;-78
2022/06/12 09:45:26;;;;;;;0.52;0.38;;;;;;;20.70;43.20;101832.84;6372024;27;20069;-77
2022/06/12 09:48:47;;;;;;;0.68;0.22;;;;;;;20.81;41.01;101832.00;6372398;27;20043;-76
2022/06/12 09:52:03;;;;;;;0.95;0.50;;;;;;;20.99;41.76;101833.22;6372516;27;20051;-76
2022/06/12 09:55:11;;;;;;;0.95;0.38;;;;;;;21.06;42.15;101828.22;6371841;27;20402;-77
2022/06/12 09:58:19;;;;;;;1.10;0.40;;;;;;;21.13;40.87;101832.09;6372363;27;20043;-77
2022/06/12 10:01:25;;;;;;;2.60;0.50;;;;;;;21.07;42.02;101827.22;6372995;27;20443;-77
2022/06/12 10:04:37;;;;;;;1.13;0.40;;;;;;;21.04;42.70;101822.16;6371979;28;20058;-77
2022/06/12 10:07:47;;;;;;;7.07;0.50;;;;;;;21.09;44.41;101824.44;6380154;27;20049;-77
2022/06/12 10:10:53;;;;;;;0.47;0.30;;;;;;;21.22;42.76;101825.16;6380317;27;20505;-77
2022/06/12 10:13:58;;;;;;;0.77;0.28;;;;;;;21.18;41.83;101811.19;6380416;27;20047;-77
2022/06/12 10:17:04;;;;;;;0.75;0.50;;;;;;;21.25;41.15;101811.53;6380807;27;20054;-77
2022/06/12 10:20:09;;;;;;;1.05;0.40;;;;;;;21.27;39.01;101804.25;6380175;27;20046;-77
2022/06/12 10:23:10;;;;;;;2.55;0.50;;;;;;;21.22;39.77;101811.78;6380786;27;20051;-76
2022/06/12 10:26:18;;;;;;;1.27;0.28;;;;;;;21.38;38.74;101806.06;6380209;27;20050;-77
2022/06/12 10:29:24;;;;;;;0.95;0.75;;;;;;;21.29;39.38;101804.94;6380612;27;20129;-77
2022/06/12 10:32:41;;;;;;;1.35;0.30;;;;;;;21.30;39.06;101801.28;6397783;27;20058;-76
2022/06/12 10:35:49;;;;;;;0.77;0.30;;;;;;;21.38;39.84;101792.69;6406037;27;20057;-77
2022/06/12 10:38:50;;;;;;;2.05;0.40;;;;;;;21.42;40.39;101796.81;6405957;27;20493;-77
2022/06/12 10:41:54;;;;;;;0.57;0.43;;;;;;;21.53;39.25;101792.28;6406018;27;20598;-77
2022/06/12 10:44:58;;;;;;;0.63;0.22;;;;;;;21.62;39.12;101787.13;6405690;27;20054;-77
2022/06/12 10:48:04;;;;;;;0.45;0.30;;;;;;;21.85;38.40;101778.03;6406241;27;20046;-77
2022/06/12 10:51:22;;;;;;;1.05;0.40;;;;;;;21.92;39.20;101784.53;6406041;27;20054;-78
2022/06/12 10:54:28;;;;;;;0.75;0.30;;;;;;;22.00;38.94;101773.19;6405955;27;20054;-77
2022/06/12 10:57:44;;;;;;;2.28;0.60;;;;;;;22.02;38.85;101765.88;6405810;27;20053;-77
2022/06/12 11:00:48;;;;;;;0.45;0.40;;;;;;;22.21;38.07;101767.84;6405142;27;20504;-77
2022/06/12 11:04:03;;;;;;;2.33;0.60;;;;;;;22.33;38.22;101768.63;6403652;27;20451;-77
2022/06/12 11:07:17;;;;;;;0.52;0.50;;;;;;;22.43;38.08;101766.81;6405898;27;20050;-77
2022/06/12 11:10:28;;;;;;;0.50;0.30;;;;;;;22.71;36.67;101768.78;6405527;27;20047;-76
2022/06/12 11:13:46;;;;;;;1.15;0.28;;;;;;;22.84;38.35;101767.69;6405938;27;20051;-77
2022/06/12 11:17:01;;;;;;;1.53;0.57;;;;;;;22.78;35.29;101758.38;6405028;27;20047;-76
2022/06/12 11:20:20;;;;;;;1.60;0.50;;;;;;;22.80;37.01;101767.13;6401149;27;20054;-77
2022/06/12 11:23:37;;;;;;;1.40;0.30;;;;;;;23.07;36.86;101762.97;6401538;27;20414;-77
2022/06/12 11:26:53;;;;;;;6.13;0.77;;;;;;;23.21;35.72;101758.09;6401085;27;20498;-77
2022/06/12 11:30:06;;;;;;;1.13;0.50;;;;;;;23.27;35.14;101756.66;6400991;27;20042;-77
2022/06/12 11:33:28;;;;;;;0.40;0.40;;;;;;;23.54;35.08;101764.03;6399326;27;20486;-77
2022/06/12 11:36:39;;;;;;;2.40;0.60;;;;;;;23.34;34.23;101749.75;6397500;27;20056;-77
2022/06/12 11:39:44;;;;;;;0.57;0.30;;;;;;;22.85;35.48;101753.31;6400804;27;20073;-77
2022/06/12 11:43:01;;;;;;;0.20;0.20;;;;;;;22.69;34.99;101745.78;6349406;28;20066;-77
2022/06/12 11:46:21;;;;;;;1.00;0.47;;;;;;;22.47;36.67;101749.50;6362521;27;20043;-77
2022/06/12 11:49:36;;;;;;;1.10;0.45;;;;;;;22.33;36.02;101748.03;6375133;27;20417;-77
2022/06/12 11:52:52;;;;;;;0.80;0.65;;;;;;;22.46;36.51;101748.66;6375269;27;20134;-76
2022/06/12 11:56:00;;;;;;;2.30;0.63;;;;;;;22.92;35.28;101735.72;6374774;27;20452;-77
2022/06/12 11:59:15;;;;;;;2.08;0.40;;;;;;;23.20;34.92;101736.75;6374662;27;20054;-76
2022/06/12 12:02:26;;;;;;;3.90;0.80;;;;;;;23.89;35.50;101728.56;6374343;27;20411;-77
2022/06/12 12:05:45;;;;;;;1.15;0.40;;;;;;;24.25;33.44;101747.53;6374934;27;20055;-77
2022/06/12 12:09:03;;;;;;;2.13;0.85;;;;;;;24.46;33.46;101733.91;6374649;27;20375;-77
2022/06/12 12:12:09;;;;;;;2.70;0.50;;;;;;;24.94;33.28;101735.50;6374437;27;20066;-78
2022/06/12 12:15:17;;;;;;;0.95;0.40;;;;;;;25.38;33.95;101732.91;6374351;27;20043;-77
2022/06/12 12:18:33;;;;;;;1.25;0.52;;;;;;;25.79;33.76;101726.06;6374530;27;20043;-78
2022/06/12 12:21:39;;;;;;;1.65;0.45;;;;;;;26.03;32.44;101715.47;6373900;27;20061;-77
2022/06/12 12:24:49;;;;;;;2.33;0.80;;;;;;;25.54;30.86;101715.06;6374392;27;20514;-78
2022/06/12 12:27:53;;;;;;;2.28;0.52;;;;;;;25.56;31.57;101707.66;6374188;27;20051;-78
2022/06/12 12:31:03;;;;;;;2.33;0.40;;;;;;;25.74;31.25;101713.03;6372786;27;20050;-76
2022/06/12 12:34:07;;;;;;;2.05;0.60;;;;;;;25.78;32.08;101706.34;6374683;27;20050;-77
2022/06/12 12:43:55;;;;;;;0.68;0.60;;;;;;;24.62;33.73;101709.06;6373358;27;20047;-77
2022/06/12 12:46:56;;;;;;;1.02;0.50;;;;;;;24.75;34.12;101707.75;6374091;27;20069;-77
2022/06/12 12:50:03;;;;;;;1.02;0.30;;;;;;;25.23;33.84;101701.19;6373188;27;20058;-77
2022/06/12 12:53:06;;;;;;;4.22;0.73;;;;;;;25.46;33.01;101696.16;6373856;27;20054;-77
2022/06/12 12:56:12;;;;;;;1.08;0.35;;;;;;;25.15;32.69;101687.66;6373459;27;20047;-77
2022/06/12 12:59:13;;;;;;;1.55;0.40;;;;;;;24.48;34.29;101700.53;6373053;27;20043;-77
2022/06/12 13:02:25;;;;;;;0.95;0.50;;;;;;;24.09;34.62;101688.22;6373425;27;20058;-77
2022/06/12 13:05:36;;;;;;;0.70;0.45;;;;;;;23.94;35.86;101696.75;6374020;27;20047;-77
2022/06/12 13:08:54;;;;;;;2.50;0.60;;;;;;;23.52;37.32;101690.84;6373344;27;20047;-77
2022/06/12 13:12:16;;;;;;;1.73;0.40;;;;;;;23.55;37.17;101680.69;6372921;27;20050;-76
2022/06/12 13:15:29;;;;;;;1.15;0.43;;;;;;;24.54;36.30;101685.63;6372771;27;20054;-77
2022/06/12 13:18:44;;;;;;;1.35;0.43;;;;;;;25.27;35.04;101680.19;6373020;27;20043;-77
2022/06/12 13:22:01;;;;;;;2.42;0.60;;;;;;;24.90;35.87;101678.47;6372585;27;20417;-76
2022/06/12 13:25:05;;;;;;;2.03;0.90;;;;;;;24.63;35.42;101675.84;6372625;27;20055;-76
2022/06/12 13:28:21;;;;;;;0.93;0.40;;;;;;;24.73;35.90;101682.00;6372649;27;20494;-77
2022/06/12 13:31:22;;;;;;;1.05;0.38;;;;;;;25.04;35.70;101669.03;6372488;27;20047;-74
2022/06/12 13:34:25;;;;;;;2.85;0.60;;;;;;;25.31;35.73;101665.44;6373126;27;20047;-75
2022/06/12 13:37:29;;;;;;;1.52;0.50;;;;;;;25.01;36.05;101677.41;6372834;27;20042;-75
2022/06/12 13:40:38;;;;;;;1.98;0.60;;;;;;;24.65;36.27;101671.13;6371484;27;20039;-75
2022/06/12 13:43:42;;;;;;;0.77;0.50;;;;;;;25.16;36.96;101656.19;6372457;27;20130;-74
2022/06/12 13:46:43;;;;;;;2.45;0.60;;;;;;;25.61;36.30;101656.06;6372565;27;20047;-74
2022/06/12 13:49:48;;;;;;;2.08;0.50;;;;;;;25.60;37.92;101653.53;6372120;27;20043;-74
2022/06/12 13:52:58;;;;;;;2.60;0.75;;;;;;;25.79;36.36;101647.94;6372200;27;20051;-75
2022/06/12 13:56:01;;;;;;;1.85;0.65;;;;;;;25.72;35.98;101646.88;6372089;27;20047;-75
2022/06/12 13:59:12;;;;;;;2.95;0.60;;;;;;;25.34;36.55;101653.50;6371779;27;20043;-74
2022/06/12 14:02:18;;;;;;;1.85;0.47;;;;;;;24.73;37.81;101649.72;6353485;28;20047;-73
2022/06/12 14:05:22;;;;;;;3.35;0.65;;;;;;;24.20;37.56;101645.88;6372827;27;20055;-75
2022/06/12 14:08:25;;;;;;;3.13;0.77;;;;;;;23.74;39.12;101646.78;6372273;28;20086;-76
2022/06/12 14:11:28;;;;;;;3.38;0.95;;;;;;;24.12;39.15;101647.63;6371623;28;20425;-74
2022/06/12 14:14:37;;;;;;;2.80;0.88;;;;;;;24.17;39.83;101656.94;6371781;28;20047;-75
2022/06/12 14:17:38;;;;;;;7.55;1.45;;;;;;;24.06;40.41;101659.81;6372011;28;20410;-74
2022/06/12 14:20:40;;;;;;;2.05;0.70;;;;;;;24.24;39.72;101649.13;6371531;28;20050;-75
2022/06/12 14:23:47;;;;;;;3.13;0.73;;;;;;;24.18;39.62;101644.34;6371449;28;20053;-74
2022/06/12 14:26:50;;;;;;;2.03;0.73;;;;;;;24.05;40.33;101650.06;6372018;28;20043;-72
2022/06/12 14:29:53;;;;;;;1.42;0.77;;;;;;;24.05;40.75;101648.22;6371444;28;20040;-74
2022/06/12 14:32:54;;;;;;;6.47;1.45;;;;;;;23.62;40.58;101638.03;6372833;27;20043;-75
2022/06/12 14:35:56;;;;;;;6.13;0.90;;;;;;;23.40;42.37;101633.84;6371443;28;20050;-75